Vandenberg Air Force Base Lompoc US
ICAO: KVBG
IATA: VBG
Category: Large
Scheduled Services: No

Elevation: 369 ft
TransAlt. 18000 ft.

Airport Communications:
SANTA BARB APP/DEP:124.15
COMD POST:31.1
ATIS:133.125
CTAF:124.95
GND/CLNC DEL:121.75
RANGE CON:121.4
PMSV METRO:34.24
PTD:126.2
TWR:124.95

KVBG Zoom In..

If you have problems with the map follow the link
https://www.worldairports.se/pages/airport.php?
ICAO=KVBG

Runways:

(A) RW 12 length 15000 ft width 200 ft
ILS 110.10 / hdg 122

(B) RW 30 length 15000 ft width 200 ft
ILS 110.10 / hdg 302

Location; KVBG
Day. 18 / Time. 23.55 Zulu
* Altimeter: 30.06
* Temperature: 18° c. 64.4°f.
* Wind from: 320° Speed 06 kn.
Dewpoint: 14° c.
Visibility: 10 Statute Miles.
Clouds: Few 800 ft.
Clouds: Few 1400 ft.

KVBG 182355Z 32006KT 10SM FEW008 FEW014 18/14 A3006 RMK AO2A SLP180 T01790142 10207 20178 56005 LAST


Wind From 320°
Speed 06 kn.

 
 
jpsmedia.com for Web Design worldairports.se 2018   terms of use